createdAt,value
2022-08-30T00:02:25.761Z,15.40
2022-08-30T00:07:35.196Z,15.26
2022-08-30T00:12:41.151Z,15.19
2022-08-30T00:17:46.187Z,15.15
2022-08-30T00:22:53.949Z,15.14
2022-08-30T00:27:58.827Z,15.09
2022-08-30T00:33:03.888Z,15.05
2022-08-30T00:38:12.160Z,15.01
2022-08-30T00:43:23.225Z,14.98
2022-08-30T00:48:30.548Z,14.94
2022-08-30T00:53:42.219Z,14.93
2022-08-30T00:58:51.551Z,14.89
2022-08-30T01:03:57.339Z,14.85
2022-08-30T01:09:06.225Z,14.82
2022-08-30T01:14:13.033Z,14.75
2022-08-30T01:19:26.996Z,14.70
2022-08-30T01:24:38.916Z,14.64
2022-08-30T01:29:45.221Z,14.57
2022-08-30T01:34:50.811Z,14.51
2022-08-30T01:39:58.556Z,14.45
2022-08-30T01:45:03.670Z,14.41
2022-08-30T01:50:09.525Z,14.36
2022-08-30T01:55:16.834Z,14.31
2022-08-30T02:00:21.910Z,14.23
2022-08-30T02:05:27.934Z,14.12
2022-08-30T02:10:35.605Z,13.93
2022-08-30T02:15:41.622Z,13.63
2022-08-30T02:20:46.636Z,13.43
2022-08-30T02:26:01.501Z,13.35
2022-08-30T02:31:06.560Z,13.21
2022-08-30T02:36:11.531Z,13.17
2022-08-30T02:41:19.201Z,13.05
2022-08-30T02:46:24.040Z,13.00
2022-08-30T02:51:28.638Z,12.94
2022-08-30T02:56:36.779Z,12.85
2022-08-30T03:01:41.839Z,12.78
2022-08-30T03:06:46.723Z,12.72
2022-08-30T03:11:54.820Z,12.66
2022-08-30T03:16:59.448Z,12.59
2022-08-30T03:22:06.254Z,12.51
2022-08-30T03:27:15.412Z,12.50
2022-08-30T03:32:20.246Z,12.47
2022-08-30T03:37:27.423Z,12.44
2022-08-30T03:42:34.875Z,12.42
2022-08-30T03:47:39.883Z,12.40
2022-08-30T03:52:47.595Z,12.37
2022-08-30T03:57:54.753Z,12.28
2022-08-30T04:03:00.616Z,12.23
2022-08-30T04:08:06.434Z,12.19
2022-08-30T04:13:13.621Z,12.17
2022-08-30T04:18:18.548Z,12.12
2022-08-30T04:23:23.155Z,12.08
2022-08-30T04:28:30.451Z,12.08
2022-08-30T04:33:37.180Z,12.05
2022-08-30T04:38:44.140Z,12.02
2022-08-30T04:43:52.409Z,12.00
2022-08-30T04:48:58.171Z,11.99
2022-08-30T04:54:03.109Z,11.98
2022-08-30T04:59:10.248Z,11.95
2022-08-30T05:04:14.955Z,11.93
2022-08-30T05:09:21.644Z,11.93
2022-08-30T05:14:28.908Z,11.92
2022-08-30T05:19:34.560Z,11.94
2022-08-30T05:24:39.654Z,11.97
2022-08-30T05:29:46.862Z,12.01
2022-08-30T05:34:51.459Z,12.04
2022-08-30T05:39:56.685Z,12.11
2022-08-30T05:45:04.507Z,12.15
2022-08-30T05:50:11.882Z,12.24
2022-08-30T05:55:23.073Z,12.29
2022-08-30T06:00:31.218Z,12.34
2022-08-30T06:05:35.845Z,12.42
2022-08-30T06:10:40.533Z,12.52
2022-08-30T06:15:47.792Z,12.62
2022-08-30T06:20:52.418Z,12.73
2022-08-30T06:25:56.930Z,12.84
2022-08-30T06:31:04.227Z,12.94
2022-08-30T06:36:11.375Z,13.07
2022-08-30T06:41:25.752Z,13.18
2022-08-30T06:46:35.618Z,13.33
2022-08-30T06:51:42.958Z,13.48
2022-08-30T06:56:58.671Z,13.67
2022-08-30T07:02:06.646Z,13.81
2022-08-30T07:07:14.493Z,13.99
2022-08-30T07:12:19.168Z,14.17
2022-08-30T07:17:39.299Z,14.28
2022-08-30T07:22:43.976Z,14.43
2022-08-30T07:27:50.353Z,14.59
2022-08-30T07:32:57.541Z,14.75
2022-08-30T07:38:02.428Z,14.90
2022-08-30T07:43:07.548Z,15.11
2022-08-30T07:48:16.333Z,15.25
2022-08-30T07:53:21.232Z,15.51
2022-08-30T07:58:30.287Z,15.71
2022-08-30T08:03:39.144Z,16.02
2022-08-30T08:08:47.670Z,16.30
2022-08-30T08:13:54.937Z,16.61
2022-08-30T08:19:02.501Z,16.84
2022-08-30T08:24:08.749Z,17.16
2022-08-30T08:29:13.609Z,17.41
2022-08-30T08:34:23.532Z,17.67
2022-08-30T08:39:28.382Z,17.89
2022-08-30T08:44:54.812Z,18.15
2022-08-30T08:50:07.492Z,18.38
2022-08-30T08:55:15.608Z,18.58
2022-08-30T09:00:21.254Z,18.75
2022-08-30T09:05:31.804Z,18.89
2022-08-30T09:10:50.332Z,19.06
2022-08-30T09:15:56.738Z,19.24
2022-08-30T09:21:11.733Z,19.39
2022-08-30T09:26:16.648Z,19.48
2022-08-30T09:31:24.779Z,19.61
2022-08-30T09:36:35.757Z,19.75
2022-08-30T09:41:44.140Z,19.78
2022-08-30T09:46:53.050Z,19.96
2022-08-30T09:52:13.385Z,20.10
2022-08-30T09:57:33.746Z,20.27
2022-08-30T10:03:04.254Z,20.44
2022-08-30T10:08:26.808Z,20.54
2022-08-30T10:13:59.429Z,20.71
2022-08-30T10:25:10.092Z,20.83
2022-08-30T10:30:18.475Z,20.93
2022-08-30T10:35:42.751Z,21.02
2022-08-30T10:41:16.954Z,21.17
2022-08-30T10:46:29.241Z,21.34
2022-08-30T10:51:41.547Z,21.41
2022-08-30T10:56:52.758Z,21.48
2022-08-30T11:02:08.834Z,21.48
2022-08-30T11:07:26.178Z,21.71
2022-08-30T11:12:37.414Z,21.90
2022-08-30T11:17:45.242Z,21.91
2022-08-30T11:23:24.442Z,22.02
2022-08-30T11:28:59.331Z,22.00
2022-08-30T11:34:07.530Z,22.07
2022-08-30T11:39:15.032Z,22.18
2022-08-30T11:44:33.350Z,22.24
2022-08-30T11:49:59.090Z,22.29
2022-08-30T11:55:20.552Z,22.47
2022-08-30T12:00:34.917Z,22.74
2022-08-30T12:05:59.050Z,22.93
2022-08-30T12:11:09.217Z,23.12
2022-08-30T12:16:16.426Z,23.13
2022-08-30T12:21:43.845Z,22.89
2022-08-30T12:26:53.398Z,22.81
2022-08-30T12:32:05.474Z,22.82
2022-08-30T12:37:24.404Z,22.83
2022-08-30T12:42:32.643Z,23.22
2022-08-30T12:47:45.032Z,23.64
2022-08-30T12:53:00.317Z,23.67
2022-08-30T12:58:09.498Z,23.81
2022-08-30T13:03:32.478Z,23.64
2022-08-30T13:08:52.232Z,23.37
2022-08-30T13:14:00.351Z,23.38
2022-08-30T13:19:29.006Z,23.55
2022-08-30T13:24:36.482Z,23.90
2022-08-30T13:29:42.354Z,24.63
2022-08-30T13:34:47.770Z,24.40
2022-08-30T13:39:55.203Z,24.10
2022-08-30T13:45:00.138Z,23.75
2022-08-30T13:50:04.993Z,23.62
2022-08-30T13:55:12.869Z,23.66
2022-08-30T14:00:22.608Z,24.17
2022-08-30T14:11:01.995Z,25.19
2022-08-30T14:21:35.936Z,25.67
2022-08-30T14:26:47.640Z,25.27
2022-08-30T14:31:52.367Z,25.01
2022-08-30T14:36:56.973Z,25.02
2022-08-30T14:42:07.635Z,25.23
2022-08-30T14:47:14.262Z,25.59
2022-08-30T14:52:18.784Z,25.27
2022-08-30T14:57:25.978Z,25.42
2022-08-30T15:02:30.662Z,25.74
2022-08-30T15:07:35.901Z,25.98
2022-08-30T15:12:44.480Z,26.17
2022-08-30T15:17:50.799Z,26.26
2022-08-30T15:22:55.580Z,26.17
2022-08-30T15:28:02.743Z,26.11
2022-08-30T15:33:08.108Z,26.21
2022-08-30T15:38:13.553Z,26.33
2022-08-30T15:43:20.908Z,26.32
2022-08-30T15:48:26.325Z,26.41
2022-08-30T15:53:31.024Z,25.95
2022-08-30T15:58:40.420Z,26.14
2022-08-30T16:03:46.117Z,26.10
2022-08-30T16:08:51.069Z,26.05
2022-08-30T16:13:59.738Z,25.97
2022-08-30T16:19:04.637Z,25.61
2022-08-30T16:24:13.717Z,25.58
2022-08-30T16:29:21.770Z,25.58
2022-08-30T16:34:26.416Z,25.48
2022-08-30T16:39:31.595Z,25.36
2022-08-30T16:44:40.259Z,25.18
2022-08-30T16:49:45.439Z,25.05
2022-08-30T16:54:52.244Z,24.77
2022-08-30T16:59:59.737Z,24.46
2022-08-30T17:05:04.423Z,24.27
2022-08-30T17:10:09.372Z,24.05
2022-08-30T17:15:20.854Z,23.82
2022-08-30T17:20:26.935Z,23.62
2022-08-30T17:25:34.061Z,23.39
2022-08-30T17:30:42.901Z,23.15
2022-08-30T17:35:50.805Z,22.80
2022-08-30T17:40:55.539Z,22.54
2022-08-30T17:46:18.439Z,22.29
2022-08-30T17:51:23.431Z,21.91
2022-08-30T17:56:34.368Z,21.60
2022-08-30T18:01:44.738Z,21.30
2022-08-30T18:12:39.119Z,20.63
2022-08-30T18:17:49.976Z,20.46
2022-08-30T18:22:54.862Z,20.28
2022-08-30T18:28:01.105Z,20.17
2022-08-30T18:33:08.906Z,20.00
2022-08-30T18:38:15.026Z,19.80
2022-08-30T18:43:24.642Z,19.64
2022-08-30T18:48:39.218Z,19.47
2022-08-30T18:53:45.464Z,19.34
2022-08-30T18:58:50.605Z,19.13
2022-08-30T19:03:58.050Z,19.03
2022-08-30T19:09:02.959Z,18.95
2022-08-30T19:14:13.959Z,18.85
2022-08-30T19:19:22.167Z,18.77
2022-08-30T19:24:26.995Z,18.71
2022-08-30T19:29:31.889Z,18.62
2022-08-30T19:34:39.152Z,18.59
2022-08-30T19:39:44.610Z,18.52
2022-08-30T19:45:00.146Z,18.43
2022-08-30T19:50:05.244Z,18.38
2022-08-30T19:55:12.515Z,18.38
2022-08-30T20:00:20.710Z,18.38
2022-08-30T20:05:25.383Z,18.33
2022-08-30T20:10:30.211Z,18.31
2022-08-30T20:15:38.499Z,18.25
2022-08-30T20:20:49.900Z,18.20
2022-08-30T20:25:56.069Z,18.17
2022-08-30T20:31:05.732Z,18.13
2022-08-30T20:36:13.293Z,18.06
2022-08-30T20:41:19.976Z,18.04
2022-08-30T20:46:31.998Z,18.01
2022-08-30T20:51:39.460Z,17.97
2022-08-30T20:56:44.139Z,17.93
2022-08-30T21:01:51.442Z,17.89
2022-08-30T21:06:56.632Z,17.86
2022-08-30T21:12:01.297Z,17.83
2022-08-30T21:17:08.572Z,17.81
2022-08-30T21:22:14.680Z,17.83
2022-08-30T21:27:21.304Z,17.85
2022-08-30T21:32:28.564Z,17.78
2022-08-30T21:37:36.160Z,17.71
2022-08-30T21:42:42.209Z,17.65
2022-08-30T21:47:49.428Z,17.61
2022-08-30T21:52:55.582Z,17.59
2022-08-30T21:58:02.074Z,17.56
2022-08-30T22:03:11.580Z,17.54
2022-08-30T22:08:16.638Z,17.49
2022-08-30T22:13:21.150Z,17.48
2022-08-30T22:18:28.611Z,17.40
2022-08-30T22:23:33.924Z,17.35
2022-08-30T22:28:39.421Z,17.22
2022-08-30T22:33:48.063Z,17.19
2022-08-30T22:38:54.375Z,17.08
2022-08-30T22:43:58.891Z,16.94
2022-08-30T22:49:07.324Z,16.86
2022-08-30T22:54:12.428Z,16.71
2022-08-30T22:59:17.978Z,16.60
2022-08-30T23:04:25.409Z,16.53
2022-08-30T23:09:31.580Z,16.49
2022-08-30T23:14:37.472Z,16.41
2022-08-30T23:19:44.821Z,16.33
2022-08-30T23:25:02.062Z,16.25
2022-08-30T23:30:20.622Z,16.27
2022-08-30T23:35:40.284Z,16.26
2022-08-30T23:40:58.207Z,16.19
2022-08-30T23:46:19.264Z,16.13
2022-08-30T23:51:39.499Z,16.11
2022-08-30T23:56:56.960Z,16.08
